Time;durP1;ratioP1;P1;durP2;ratioP2;P2;SDS_P1;SDS_P2;PMS_P1;PMS_P2;Temp;Humidity;BMP_temperature;BMP_pressure;BME280_temperature;BME280_humidity;BME280_pressure;Samples;Min_cycle;Max_cycle;Signal;HPM_P1;HPM_P2
2023/09/25 00:02:00;;;;;;;3.42;1.90;;;15.40;99.90;;;;;;5078934;28;20109;-84
2023/09/25 00:04:28;;;;;;;3.88;2.97;;;15.30;99.90;;;;;;5078369;28;20495;-84
2023/09/25 00:06:55;;;;;;;2.95;2.35;;;15.40;99.90;;;;;;5083100;28;20090;-93
2023/09/25 00:09:38;;;;;;;4.95;2.45;;;15.20;99.90;;;;;;5068672;28;20951;-84
2023/09/25 00:12:05;;;;;;;2.40;2.20;;;15.20;99.90;;;;;;5069002;28;20028;-84
2023/09/25 00:14:30;;;;;;;5.35;2.53;;;15.20;99.90;;;;;;5066079;28;20487;-84
2023/09/25 00:16:56;;;;;;;5.10;2.80;;;15.20;99.90;;;;;;5059824;28;20036;-83
2023/09/25 00:19:22;;;;;;;2.83;2.13;;;15.30;99.90;;;;;;5057046;28;20031;-83
2023/09/25 00:21:48;;;;;;;2.17;1.98;;;15.20;99.90;;;;;;5064275;28;20430;-83
2023/09/25 00:24:13;;;;;;;5.60;2.63;;;15.20;99.90;;;;;;5062968;28;20039;-83
2023/09/25 00:26:39;;;;;;;2.83;2.13;;;15.70;99.90;;;;;;5065934;28;20032;-84
2023/09/25 00:29:05;;;;;;;2.92;2.30;;;15.20;99.90;;;;;;5062871;28;20391;-84
2023/09/25 00:31:31;;;;;;;3.00;2.80;;;15.20;99.90;;;;;;5063700;28;20040;-84
2023/09/25 00:33:57;;;;;;;3.30;2.63;;;15.20;99.90;;;;;;5057794;28;20056;-84
2023/09/25 00:36:22;;;;;;;6.53;2.55;;;16.20;99.90;;;;;;5051449;28;20052;-84
2023/09/25 00:38:48;;;;;;;2.63;2.08;;;15.80;99.90;;;;;;5066401;28;20380;-84
2023/09/25 00:41:14;;;;;;;3.33;2.63;;;15.30;99.90;;;;;;5072177;28;20029;-84
2023/09/25 00:43:39;;;;;;;2.75;2.47;;;15.10;99.90;;;;;;5068893;28;20464;-84
2023/09/25 00:46:05;;;;;;;4.47;2.47;;;15.20;99.90;;;;;;5059481;28;20075;-83
2023/09/25 00:48:31;;;;;;;4.47;2.33;;;15.10;99.90;;;;;;5071126;28;20127;-84
2023/09/25 00:50:58;;;;;;;2.58;2.30;;;15.10;99.90;;;;;;5056947;28;20028;-84
2023/09/25 00:53:26;;;;;;;3.47;2.17;;;15.10;99.90;;;;;;5067028;28;20033;-84
2023/09/25 00:55:52;;;;;;;2.33;2.13;;;15.10;99.90;;;;;;5052356;28;20029;-84
2023/09/25 00:58:19;;;;;;;4.72;2.90;;;15.10;99.90;;;;;;5070164;28;20021;-84
2023/09/25 01:00:46;;;;;;;5.10;3.50;;;15.70;99.90;;;;;;5060377;28;20043;-84
2023/09/25 01:03:12;;;;;;;4.60;2.60;;;15.00;99.90;;;;;;5053284;28;20036;-84
2023/09/25 01:05:40;;;;;;;2.67;2.42;;;15.50;99.90;;;;;;5051304;28;20029;-84
2023/09/25 01:08:07;;;;;;;3.85;2.40;;;15.80;99.90;;;;;;5066824;28;20036;-84
2023/09/25 01:10:33;;;;;;;3.38;2.47;;;15.00;99.90;;;;;;5058136;28;20032;-82
2023/09/25 01:13:00;;;;;;;2.90;2.05;;;15.00;99.90;;;;;;5073790;28;20043;-84
2023/09/25 01:15:26;;;;;;;4.45;2.53;;;15.00;99.90;;;;;;5073514;28;20033;-85
2023/09/25 01:17:52;;;;;;;4.85;2.72;;;15.00;99.90;;;;;;5074895;28;20032;-84
2023/09/25 01:20:18;;;;;;;4.20;2.38;;;15.00;99.90;;;;;;5075947;28;20025;-84
2023/09/25 01:22:48;;;;;;;3.00;2.42;;;15.10;99.90;;;;;;5072591;28;20034;-84
2023/09/25 01:25:18;;;;;;;4.95;2.22;;;15.00;99.90;;;;;;5069108;28;20067;-83
2023/09/25 01:27:46;;;;;;;8.23;2.23;;;14.90;99.90;;;;;;5078976;28;20052;-84
2023/09/25 01:30:13;;;;;;;4.70;2.20;;;14.90;99.90;;;;;;5084921;28;20021;-84
2023/09/25 01:32:42;;;;;;;3.63;2.40;;;14.80;99.90;;;;;;5072902;28;20029;-84
2023/09/25 01:35:23;;;;;;;4.13;2.72;;;14.90;99.90;;;;;;5074389;28;20099;-84
2023/09/25 01:37:49;;;;;;;4.40;2.70;;;14.80;99.90;;;;;;5072962;28;20532;-84
2023/09/25 01:40:17;;;;;;;3.00;2.55;;;15.10;99.90;;;;;;5074599;28;20107;-84
2023/09/25 01:42:47;;;;;;;5.18;2.80;;;14.80;99.90;;;;;;5062662;28;20036;-83
2023/09/25 01:45:16;;;;;;;3.00;2.67;;;14.80;99.90;;;;;;5074360;28;20028;-83
2023/09/25 01:47:42;;;;;;;2.55;2.15;;;14.80;99.90;;;;;;5064628;28;20440;-83
2023/09/25 01:50:10;;;;;;;3.85;3.08;;;14.70;99.90;;;;;;5069161;28;20026;-84
2023/09/25 01:52:35;;;;;;;2.90;2.17;;;14.60;99.90;;;;;;5056542;28;20033;-84
2023/09/25 01:55:03;;;;;;;3.72;2.47;;;14.60;99.90;;;;;;5065902;28;20025;-83
2023/09/25 01:57:30;;;;;;;3.33;2.28;;;14.60;99.90;;;;;;5070083;28;20032;-84
2023/09/25 01:59:56;;;;;;;3.53;2.33;;;14.60;99.90;;;;;;5073872;28;20059;-84
2023/09/25 02:02:21;;;;;;;2.38;2.17;;;14.50;99.90;;;;;;5061410;28;20056;-84
2023/09/25 02:04:47;;;;;;;4.70;2.78;;;14.50;99.90;;;;;;5067995;28;20021;-84
2023/09/25 02:07:14;;;;;;;2.85;2.30;;;14.50;99.90;;;;;;5060033;28;20040;-84
2023/09/25 02:09:40;;;;;;;8.50;2.28;;;14.50;99.90;;;;;;5062235;28;20074;-84
2023/09/25 02:12:05;;;;;;;6.50;2.53;;;14.50;99.90;;;;;;5066252;28;20021;-84
2023/09/25 02:14:31;;;;;;;4.93;2.92;;;14.50;99.90;;;;;;5056713;28;20028;-84
2023/09/25 02:16:57;;;;;;;8.27;3.03;;;14.50;99.90;;;;;;5073375;28;20024;-84
2023/09/25 02:19:25;;;;;;;2.65;2.28;;;14.50;99.90;;;;;;5072647;28;20032;-83
2023/09/25 02:21:51;;;;;;;2.88;2.58;;;14.50;99.90;;;;;;5065618;28;20028;-84
2023/09/25 02:24:16;;;;;;;3.17;2.55;;;14.50;99.90;;;;;;5072449;28;20494;-84
2023/09/25 02:26:42;;;;;;;2.80;2.40;;;14.40;99.90;;;;;;5065365;28;20037;-84
2023/09/25 02:29:09;;;;;;;2.55;2.35;;;14.40;99.90;;;;;;5053737;28;20101;-84
2023/09/25 02:31:35;;;;;;;2.70;2.33;;;15.20;99.90;;;;;;5074061;28;20025;-83
2023/09/25 02:34:01;;;;;;;3.30;2.50;;;14.40;99.90;;;;;;5057229;28;20040;-84
2023/09/25 02:36:26;;;;;;;5.95;2.38;;;14.40;99.90;;;;;;5066970;28;20028;-83
2023/09/25 02:38:52;;;;;;;5.05;2.78;;;14.40;99.90;;;;;;5072822;28;20031;-83
2023/09/25 02:41:17;;;;;;;5.28;2.60;;;14.40;99.90;;;;;;5068789;28;20036;-84
2023/09/25 02:43:43;;;;;;;5.75;3.00;;;14.40;99.90;;;;;;5071058;28;20031;-83
2023/09/25 02:46:09;;;;;;;4.00;2.75;;;15.00;99.90;;;;;;5067903;28;20067;-83
2023/09/25 02:48:34;;;;;;;3.22;2.58;;;14.30;99.90;;;;;;5053023;28;20029;-83
2023/09/25 02:51:00;;;;;;;5.72;2.97;;;14.30;99.90;;;;;;5062359;28;20032;-83
2023/09/25 02:53:26;;;;;;;3.03;2.25;;;14.40;99.90;;;;;;5071036;28;20033;-83
2023/09/25 02:55:51;;;;;;;4.72;2.83;;;14.20;99.90;;;;;;5071802;28;20028;-82
2023/09/25 02:58:17;;;;;;;4.13;2.65;;;14.30;99.90;;;;;;5057260;28;20074;-83
2023/09/25 03:00:44;;;;;;;2.70;2.35;;;14.40;99.90;;;;;;5069708;28;20033;-83
2023/09/25 03:03:10;;;;;;;2.80;2.45;;;14.30;99.90;;;;;;5067114;28;20021;-83
2023/09/25 03:05:36;;;;;;;3.65;2.72;;;14.40;99.90;;;;;;5060670;28;20179;-83
2023/09/25 03:08:03;;;;;;;3.78;2.80;;;15.10;99.90;;;;;;5060779;28;20047;-83
2023/09/25 03:10:28;;;;;;;3.55;2.70;;;14.30;99.90;;;;;;5053001;28;20025;-83
2023/09/25 03:12:54;;;;;;;2.95;2.53;;;14.30;99.90;;;;;;5064068;28;20029;-83
2023/09/25 03:15:19;;;;;;;5.03;2.65;;;14.30;99.90;;;;;;5062034;28;20369;-83
2023/09/25 03:17:45;;;;;;;3.28;2.58;;;14.30;99.90;;;;;;5052698;28;20021;-83
2023/09/25 03:20:17;;;;;;;4.22;2.85;;;14.70;99.90;;;;;;5059347;28;20083;-83
2023/09/25 03:22:44;;;;;;;4.10;3.00;;;14.30;99.90;;;;;;5068143;28;20029;-83
2023/09/25 03:25:10;;;;;;;3.13;2.67;;;14.40;99.90;;;;;;5072262;28;20040;-83
2023/09/25 03:27:36;;;;;;;3.42;2.70;;;14.30;99.90;;;;;;5061196;28;20488;-83
2023/09/25 03:30:02;;;;;;;4.60;2.65;;;14.70;99.90;;;;;;5061886;28;20028;-84
2023/09/25 03:32:28;;;;;;;6.40;2.83;;;14.20;99.90;;;;;;5070257;28;20563;-84
2023/09/25 03:34:53;;;;;;;3.50;2.50;;;15.30;99.90;;;;;;5071344;28;20024;-84
2023/09/25 03:37:19;;;;;;;4.05;2.90;;;15.20;99.90;;;;;;5061549;28;20035;-84
2023/09/25 03:39:44;;;;;;;4.25;2.92;;;14.10;99.90;;;;;;5071087;28;20035;-83
2023/09/25 03:42:10;;;;;;;3.33;2.75;;;14.30;99.90;;;;;;5055531;28;20076;-84
2023/09/25 03:44:36;;;;;;;5.72;3.00;;;14.20;99.90;;;;;;5070458;28;20043;-83
2023/09/25 03:47:01;;;;;;;4.50;2.83;;;14.20;99.90;;;;;;5066982;28;20496;-83
2023/09/25 03:49:27;;;;;;;3.85;2.53;;;14.10;99.90;;;;;;5070314;28;20039;-83
2023/09/25 03:51:52;;;;;;;3.33;2.60;;;15.40;99.90;;;;;;5058948;28;20025;-83
2023/09/25 03:54:18;;;;;;;4.05;2.88;;;14.20;99.90;;;;;;5067738;28;20020;-83
2023/09/25 03:56:43;;;;;;;4.43;2.85;;;14.20;99.90;;;;;;5053137;28;20017;-82
2023/09/25 03:59:11;;;;;;;13.75;2.80;;;14.10;99.90;;;;;;5058436;28;20075;-83
2023/09/25 04:01:36;;;;;;;3.75;3.15;;;14.20;99.90;;;;;;5052187;28;20037;-83
2023/09/25 04:04:02;;;;;;;5.00;3.20;;;14.20;99.90;;;;;;5055155;28;20036;-83
2023/09/25 04:06:28;;;;;;;3.70;2.63;;;14.10;99.90;;;;;;5070352;28;20040;-83
2023/09/25 04:08:54;;;;;;;5.50;2.80;;;14.10;99.90;;;;;;5070928;28;20036;-83
2023/09/25 04:11:19;;;;;;;2.63;2.42;;;14.90;99.90;;;;;;5055367;28;20519;-83
2023/09/25 04:13:46;;;;;;;4.50;2.75;;;14.10;99.90;;;;;;5062214;28;20032;-82
2023/09/25 04:16:14;;;;;;;3.03;2.67;;;14.10;99.90;;;;;;5061053;28;20099;-83
2023/09/25 04:18:42;;;;;;;8.98;3.13;;;14.10;99.90;;;;;;5058840;28;20021;-83
2023/09/25 04:21:14;;;;;;;5.07;2.58;;;14.10;99.90;;;;;;5064933;28;20029;-83
2023/09/25 04:23:40;;;;;;;3.53;2.70;;;14.10;99.90;;;;;;5069521;28;20521;-83
2023/09/25 04:26:06;;;;;;;3.92;2.25;;;14.00;99.90;;;;;;5054642;28;20049;-83
2023/09/25 04:28:32;;;;;;;3.42;2.80;;;14.00;99.90;;;;;;5070866;28;20036;-84
2023/09/25 04:30:59;;;;;;;3.38;2.88;;;14.30;99.90;;;;;;5069074;28;20031;-82
2023/09/25 04:33:25;;;;;;;3.08;2.72;;;14.90;99.90;;;;;;5075036;28;20021;-82
2023/09/25 04:35:55;;;;;;;3.22;2.92;;;14.00;99.90;;;;;;5091601;28;20046;-83
2023/09/25 04:38:21;;;;;;;4.88;3.20;;;14.00;99.90;;;;;;5076148;28;20040;-83
2023/09/25 04:40:47;;;;;;;5.28;2.78;;;14.00;99.90;;;;;;5070030;28;20468;-83
2023/09/25 04:43:12;;;;;;;5.40;3.03;;;13.90;99.90;;;;;;5072365;28;20043;-84
2023/09/25 04:45:38;;;;;;;2.88;2.30;;;14.00;99.90;;;;;;5076661;28;20024;-83
2023/09/25 04:48:04;;;;;;;5.78;2.72;;;13.90;99.90;;;;;;5073691;28;20076;-84
2023/09/25 04:50:30;;;;;;;3.50;2.88;;;14.00;99.90;;;;;;5058882;28;20104;-83
2023/09/25 04:52:55;;;;;;;3.28;2.63;;;13.90;99.90;;;;;;5055689;28;20179;-83
2023/09/25 04:55:21;;;;;;;3.22;2.50;;;13.90;99.90;;;;;;5075829;28;20033;-84
2023/09/25 04:57:47;;;;;;;7.22;2.83;;;13.90;99.90;;;;;;5064037;28;20029;-83
2023/09/25 05:00:21;;;;;;;7.00;2.92;;;14.90;99.90;;;;;;5055491;28;20032;-83
2023/09/25 05:02:48;;;;;;;2.85;2.55;;;13.90;99.90;;;;;;5067592;28;20060;-83
2023/09/25 05:05:16;;;;;;;4.93;3.00;;;14.40;99.90;;;;;;5077142;28;20020;-84
2023/09/25 05:07:47;;;;;;;4.97;2.78;;;13.90;99.90;;;;;;5065825;28;20215;-82
2023/09/25 05:10:14;;;;;;;4.75;2.67;;;13.90;99.90;;;;;;5070409;28;20035;-83
2023/09/25 05:12:41;;;;;;;3.92;2.83;;;13.90;99.90;;;;;;5074540;28;20020;-82
2023/09/25 05:15:08;;;;;;;4.85;2.70;;;14.60;99.90;;;;;;5071001;28;20021;-83
2023/09/25 05:17:36;;;;;;;5.13;2.72;;;14.00;99.90;;;;;;5072961;28;20431;-84
2023/09/25 05:20:08;;;;;;;5.15;2.70;;;14.00;99.90;;;;;;5067386;28;20040;-82
2023/09/25 05:22:34;;;;;;;4.35;2.30;;;13.90;99.90;;;;;;5074396;28;20070;-84
2023/09/25 05:25:00;;;;;;;5.03;2.72;;;13.90;99.90;;;;;;5072889;28;20020;-81
2023/09/25 05:27:26;;;;;;;7.03;2.47;;;14.00;99.90;;;;;;5073952;28;20427;-84
2023/09/25 05:29:51;;;;;;;5.95;3.30;;;15.10;99.90;;;;;;5072659;28;20402;-83
2023/09/25 05:32:17;;;;;;;6.47;3.13;;;13.90;99.90;;;;;;5074305;28;20207;-83
2023/09/25 05:34:43;;;;;;;6.40;2.50;;;14.00;99.90;;;;;;5071749;28;20021;-83
2023/09/25 05:37:08;;;;;;;4.20;2.75;;;13.90;99.90;;;;;;5074233;28;20021;-83
2023/09/25 05:39:34;;;;;;;8.05;2.75;;;13.90;99.90;;;;;;5074073;28;20026;-83
2023/09/25 05:41:59;;;;;;;7.80;2.60;;;13.90;99.90;;;;;;5072458;28;20032;-84
2023/09/25 05:44:25;;;;;;;3.85;2.88;;;14.10;99.90;;;;;;5073632;28;20380;-82
2023/09/25 05:46:59;;;;;;;2.88;2.53;;;14.50;99.90;;;;;;5066590;28;20039;-81
2023/09/25 05:49:25;;;;;;;5.80;3.08;;;14.00;99.90;;;;;;5054499;28;20025;-81
2023/09/25 05:51:53;;;;;;;4.82;2.55;;;13.90;99.90;;;;;;5057531;28;20029;-80
2023/09/25 05:54:22;;;;;;;4.10;3.15;;;14.30;99.90;;;;;;5068131;28;20044;-83
2023/09/25 05:56:48;;;;;;;4.80;2.20;;;14.00;99.90;;;;;;5069148;28;20029;-83
2023/09/25 05:59:14;;;;;;;4.88;2.55;;;14.10;99.90;;;;;;5064271;28;20268;-81
2023/09/25 06:01:40;;;;;;;3.65;2.45;;;14.00;99.90;;;;;;5075284;28;20025;-82
2023/09/25 06:04:06;;;;;;;3.65;2.63;;;14.40;99.90;;;;;;5060728;28;20500;-82
2023/09/25 06:06:33;;;;;;;3.20;2.80;;;14.00;99.90;;;;;;5074468;28;20486;-81
2023/09/25 06:09:00;;;;;;;3.38;3.08;;;14.00;99.90;;;;;;5082638;28;20190;-82
2023/09/25 06:11:26;;;;;;;3.10;2.50;;;14.00;99.90;;;;;;5063049;28;20110;-82
2023/09/25 06:13:51;;;;;;;5.72;2.67;;;14.00;99.90;;;;;;5061102;28;20086;-84
2023/09/25 06:16:17;;;;;;;5.20;2.97;;;14.00;99.90;;;;;;5065389;28;20031;-83
2023/09/25 06:18:43;;;;;;;3.38;2.60;;;14.00;99.90;;;;;;5057601;28;20025;-82
2023/09/25 06:21:12;;;;;;;3.80;2.83;;;14.00;99.90;;;;;;5066626;28;20052;-84
2023/09/25 06:23:42;;;;;;;3.63;2.50;;;14.10;99.90;;;;;;5069214;28;20025;-81
2023/09/25 06:26:08;;;;;;;3.10;2.63;;;14.00;99.90;;;;;;5071647;28;20086;-82
2023/09/25 06:28:33;;;;;;;8.93;3.85;;;14.10;99.90;;;;;;5072502;28;20439;-82
2023/09/25 06:30:59;;;;;;;2.72;2.53;;;14.00;99.90;;;;;;5070831;28;20392;-84
2023/09/25 06:33:25;;;;;;;8.98;2.47;;;14.00;99.90;;;;;;5073219;28;20032;-81
2023/09/25 06:35:52;;;;;;;4.10;3.05;;;14.10;99.90;;;;;;5072075;28;20033;-82
2023/09/25 06:38:19;;;;;;;3.47;2.50;;;14.40;99.90;;;;;;5062913;28;20032;-84
2023/09/25 06:40:45;;;;;;;5.22;2.80;;;14.30;99.90;;;;;;5072130;28;20107;-83
2023/09/25 06:43:12;;;;;;;4.30;2.92;;;14.60;99.90;;;;;;5069822;28;20040;-83
2023/09/25 06:45:40;;;;;;;3.95;2.70;;;14.40;99.90;;;;;;5065907;28;20028;-82
2023/09/25 06:48:07;;;;;;;7.95;2.70;;;14.10;99.90;;;;;;5071564;28;20036;-83
2023/09/25 06:50:33;;;;;;;5.57;2.63;;;14.10;99.90;;;;;;5072615;28;20020;-82
2023/09/25 06:52:59;;;;;;;3.00;2.70;;;14.50;99.90;;;;;;5071589;28;20151;-83
2023/09/25 06:55:25;;;;;;;3.80;3.00;;;14.20;99.90;;;;;;5072567;28;20462;-83
2023/09/25 06:57:50;;;;;;;6.75;3.10;;;14.30;99.90;;;;;;5067435;28;20097;-83
2023/09/25 07:00:17;;;;;;;5.47;3.05;;;14.20;99.90;;;;;;5072005;28;20032;-82
2023/09/25 07:02:44;;;;;;;4.70;3.10;;;14.20;99.90;;;;;;5068682;28;20039;-83
2023/09/25 07:05:09;;;;;;;8.80;2.55;;;14.20;99.90;;;;;;5060886;28;20036;-84
2023/09/25 07:07:36;;;;;;;9.10;3.00;;;14.20;99.90;;;;;;5062517;28;20079;-84
2023/09/25 07:10:05;;;;;;;6.55;3.55;;;14.30;99.90;;;;;;5072852;28;20029;-83
2023/09/25 07:12:30;;;;;;;5.63;3.58;;;14.30;99.90;;;;;;5062608;28;20563;-83
2023/09/25 07:14:56;;;;;;;4.18;2.90;;;14.50;99.90;;;;;;5068243;28;20025;-85
2023/09/25 07:17:26;;;;;;;4.30;2.75;;;14.30;99.90;;;;;;5058410;28;20025;-85
2023/09/25 07:19:52;;;;;;;6.10;3.40;;;14.30;99.90;;;;;;5065204;28;20115;-85
2023/09/25 07:22:20;;;;;;;3.65;2.70;;;14.40;99.90;;;;;;5069292;28;20464;-84
2023/09/25 07:24:46;;;;;;;5.35;3.25;;;14.40;99.90;;;;;;5057426;28;20112;-83
2023/09/25 07:27:11;;;;;;;4.10;2.88;;;14.70;99.90;;;;;;5064732;28;20036;-82
2023/09/25 07:29:37;;;;;;;3.40;2.60;;;14.40;99.90;;;;;;5068439;28;20028;-82
2023/09/25 07:32:03;;;;;;;2.80;2.55;;;14.40;99.90;;;;;;5060022;28;20024;-84
2023/09/25 07:34:29;;;;;;;5.10;3.50;;;14.50;99.90;;;;;;5063334;28;20021;-84
2023/09/25 07:36:55;;;;;;;2.63;2.33;;;14.50;99.90;;;;;;5052901;28;20033;-84
2023/09/25 07:39:22;;;;;;;3.88;2.78;;;14.50;99.90;;;;;;5073657;28;20036;-82
2023/09/25 07:41:51;;;;;;;4.43;3.20;;;14.60;99.90;;;;;;5085552;28;20033;-85
2023/09/25 07:44:16;;;;;;;5.32;2.92;;;15.30;99.90;;;;;;5085987;28;20469;-83
2023/09/25 07:46:47;;;;;;;3.53;2.78;;;14.60;99.90;;;;;;5065650;28;20118;-83
2023/09/25 07:49:13;;;;;;;;;;;14.70;99.90;;;;;;5062510;28;20028;-84
2023/09/25 07:51:39;;;;;;;4.68;3.10;;;14.70;99.90;;;;;;5083651;28;19920;-83
2023/09/25 07:54:05;;;;;;;6.10;2.88;;;14.70;99.90;;;;;;5070650;28;20116;-83
2023/09/25 07:56:31;;;;;;;4.07;3.60;;;14.70;99.90;;;;;;5062066;28;20060;-84
2023/09/25 07:58:56;;;;;;;3.00;2.70;;;14.80;99.90;;;;;;5070918;28;20510;-83
2023/09/25 08:01:22;;;;;;;4.75;2.80;;;14.60;99.90;;;;;;5063806;28;20025;-84
2023/09/25 08:03:51;;;;;;;4.78;2.53;;;14.80;99.90;;;;;;5062678;28;20040;-83
2023/09/25 08:06:19;;;;;;;6.00;3.08;;;14.80;99.90;;;;;;5059813;28;20052;-82
2023/09/25 08:08:45;;;;;;;5.72;2.65;;;15.70;99.90;;;;;;5059906;28;20086;-82
2023/09/25 08:11:14;;;;;;;4.00;2.65;;;14.90;99.90;;;;;;5078304;28;20020;-82
2023/09/25 08:13:41;;;;;;;4.05;2.60;;;15.50;99.90;;;;;;5075915;28;20085;-84
2023/09/25 08:16:07;;;;;;;5.45;3.10;;;14.90;99.90;;;;;;5070543;28;20016;-83
2023/09/25 08:18:33;;;;;;;3.30;2.47;;;14.90;99.90;;;;;;5057341;28;20036;-84
2023/09/25 08:20:59;;;;;;;3.58;2.30;;;15.00;99.90;;;;;;5066195;28;20021;-83
2023/09/25 08:23:26;;;;;;;2.25;2.08;;;14.90;99.90;;;;;;5061565;28;20028;-85
2023/09/25 08:25:51;;;;;;;4.20;2.72;;;15.00;99.90;;;;;;5067744;28;20086;-84
2023/09/25 08:28:18;;;;;;;7.47;2.97;;;15.00;99.90;;;;;;5055104;28;20496;-84
2023/09/25 08:30:44;;;;;;;6.68;2.80;;;15.10;99.90;;;;;;5064508;28;20400;-85
2023/09/25 08:33:10;;;;;;;3.38;2.60;;;15.10;99.90;;;;;;5060253;28;20032;-84
2023/09/25 08:35:36;;;;;;;4.43;3.05;;;15.20;99.90;;;;;;5051041;28;20021;-84
2023/09/25 08:38:02;;;;;;;3.85;2.72;;;15.20;99.90;;;;;;5057800;28;20036;-84
2023/09/25 08:40:32;;;;;;;3.05;2.50;;;15.30;99.90;;;;;;5066816;28;20021;-84
2023/09/25 08:42:59;;;;;;;6.28;2.42;;;15.30;99.90;;;;;;5069982;28;20036;-83
2023/09/25 08:45:24;;;;;;;4.78;2.50;;;15.30;99.90;;;;;;5059538;28;20431;-85
2023/09/25 08:47:50;;;;;;;4.53;2.85;;;15.40;99.90;;;;;;5077600;28;20036;-83
2023/09/25 08:50:16;;;;;;;3.10;2.33;;;15.40;99.90;;;;;;5051680;28;20108;-84
2023/09/25 08:52:42;;;;;;;3.38;2.28;;;15.50;99.90;;;;;;5061675;28;20067;-83
2023/09/25 08:55:08;;;;;;;3.40;2.88;;;15.40;99.90;;;;;;5063813;28;20029;-85
2023/09/25 08:57:35;;;;;;;4.70;2.85;;;15.40;99.90;;;;;;5061963;28;20036;-82
2023/09/25 09:00:11;;;;;;;4.50;3.10;;;16.40;99.90;;;;;;5051098;28;20553;-85
2023/09/25 09:02:40;;;;;;;4.88;3.25;;;15.50;99.90;;;;;;5053478;28;20036;-83
2023/09/25 09:05:16;;;;;;;3.10;2.45;;;15.90;99.90;;;;;;5060415;28;20032;-85
2023/09/25 09:08:06;;;;;;;4.78;2.58;;;15.60;99.90;;;;;;5064759;28;20053;-83
2023/09/25 09:10:36;;;;;;;5.50;2.97;;;15.70;99.90;;;;;;5059716;28;20519;-83
2023/09/25 09:13:07;;;;;;;;;;;15.70;99.90;;;;;;5067930;28;20028;-83
2023/09/25 09:15:32;;;;;;;;;;;15.70;99.90;;;;;;5053788;28;20075;-85
2023/09/25 09:17:58;;;;;;;3.05;2.75;;;16.70;99.90;;;;;;5068418;28;19968;-84
2023/09/25 09:20:36;;;;;;;5.55;2.97;;;15.80;99.90;;;;;;5058559;28;20033;-85
2023/09/25 09:23:02;;;;;;;3.28;2.90;;;16.50;99.90;;;;;;5070637;28;20062;-84
2023/09/25 09:25:29;;;;;;;3.38;2.45;;;15.90;99.90;;;;;;5068514;28;20048;-85
2023/09/25 09:27:58;;;;;;;3.80;2.92;;;15.90;99.90;;;;;;5048780;28;20044;-83
2023/09/25 09:30:24;;;;;;;3.33;2.42;;;15.90;99.90;;;;;;5070629;28;20025;-85
2023/09/25 09:32:50;;;;;;;4.43;2.47;;;15.90;99.90;;;;;;5071852;28;20438;-85
2023/09/25 09:35:25;;;;;;;4.78;2.88;;;16.00;99.90;;;;;;5073514;28;20077;-85
2023/09/25 09:37:54;;;;;;;3.30;2.75;;;16.10;99.90;;;;;;5067679;28;20063;-85
2023/09/25 09:40:27;;;;;;;2.67;2.30;;;16.10;99.90;;;;;;5072612;28;20040;-85
2023/09/25 09:42:53;;;;;;;4.93;2.50;;;16.10;99.90;;;;;;5071846;28;20033;-84
2023/09/25 09:45:19;;;;;;;2.80;1.98;;;16.70;99.90;;;;;;5074133;28;20071;-84
2023/09/25 09:47:46;;;;;;;3.72;2.33;;;16.20;99.90;;;;;;5083365;28;20491;-85
2023/09/25 09:50:13;;;;;;;6.45;2.80;;;16.20;99.90;;;;;;5065553;28;20021;-85
2023/09/25 09:52:39;;;;;;;12.48;2.78;;;16.30;99.90;;;;;;5070019;28;20028;-84
2023/09/25 09:55:08;;;;;;;5.18;2.90;;;16.20;99.90;;;;;;5056171;28;20476;-87
2023/09/25 09:57:35;;;;;;;5.53;2.63;;;16.30;99.90;;;;;;5075259;28;20097;-84
2023/09/25 10:00:01;;;;;;;3.00;2.35;;;16.30;99.90;;;;;;5065866;28;20384;-84
2023/09/25 10:02:29;;;;;;;3.60;2.88;;;16.30;99.90;;;;;;5062195;28;20024;-85
2023/09/25 10:04:56;;;;;;;3.25;2.53;;;16.50;99.90;;;;;;5056139;28;20029;-86
2023/09/25 10:07:22;;;;;;;9.20;2.97;;;16.30;99.90;;;;;;5078281;28;20028;-85
2023/09/25 10:10:07;;;;;;;3.47;2.95;;;16.40;99.90;;;;;;5061973;28;20082;-84
2023/09/25 10:12:43;;;;;;;5.13;3.10;;;16.40;99.90;;;;;;5070153;28;20031;-84
2023/09/25 10:15:09;;;;;;;4.85;3.08;;;16.50;99.90;;;;;;5072566;28;20103;-85
2023/09/25 10:17:41;;;;;;;6.30;2.88;;;16.50;99.90;;;;;;5078721;28;20017;-84
2023/09/25 10:20:30;;;;;;;3.35;2.95;;;16.50;99.90;;;;;;5069877;28;20112;-85
2023/09/25 10:23:22;;;;;;;3.58;2.67;;;16.60;99.90;;;;;;5065021;28;20459;-84
2023/09/25 10:26:05;;;;;;;7.07;2.85;;;16.70;99.90;;;;;;5051685;28;20048;-85
2023/09/25 10:28:32;;;;;;;4.38;2.65;;;16.70;99.90;;;;;;5059549;28;20443;-85
2023/09/25 10:31:02;;;;;;;3.88;2.60;;;16.70;99.90;;;;;;5086959;28;20043;-85
2023/09/25 10:33:29;;;;;;;4.70;3.00;;;17.00;99.90;;;;;;5071635;28;20111;-85
2023/09/25 10:36:00;;;;;;;5.85;3.17;;;17.20;99.90;;;;;;5059659;28;20444;-83
2023/09/25 10:38:28;;;;;;;6.03;2.97;;;16.80;99.90;;;;;;5066543;28;20388;-85
2023/09/25 10:41:15;;;;;;;5.03;3.13;;;16.90;99.90;;;;;;5085186;28;20292;-84
2023/09/25 10:43:42;;;;;;;3.47;2.55;;;17.60;99.90;;;;;;5087451;28;20051;-83
2023/09/25 10:46:07;;;;;;;8.10;3.22;;;17.00;99.90;;;;;;5078308;28;20024;-84
2023/09/25 10:48:33;;;;;;;4.07;3.03;;;17.00;99.90;;;;;;5066611;28;20041;-83
2023/09/25 10:50:59;;;;;;;3.28;2.88;;;17.00;99.90;;;;;;5069605;28;20024;-83
2023/09/25 10:53:26;;;;;;;7.63;3.33;;;17.10;99.90;;;;;;5072226;28;20107;-83
2023/09/25 10:55:54;;;;;;;4.72;2.85;;;17.60;99.90;;;;;;5081492;28;20491;-83
2023/09/25 10:58:21;;;;;;;4.03;2.90;;;17.20;99.90;;;;;;5070533;28;20032;-83
2023/09/25 11:00:49;;;;;;;6.70;2.97;;;17.20;99.90;;;;;;5068624;28;20028;-83
2023/09/25 11:03:15;;;;;;;6.13;3.58;;;17.30;99.90;;;;;;5066022;28;20433;-83
2023/09/25 11:05:41;;;;;;;3.67;2.65;;;17.40;99.90;;;;;;5072164;28;20112;-82
2023/09/25 11:08:09;;;;;;;5.20;3.42;;;17.40;99.90;;;;;;5070174;28;20123;-84
2023/09/25 11:10:37;;;;;;;4.32;3.08;;;17.70;99.90;;;;;;5068633;28;20552;-84
2023/09/25 11:13:04;;;;;;;5.20;2.85;;;17.40;99.90;;;;;;5077569;28;20017;-84
2023/09/25 11:15:37;;;;;;;5.90;3.80;;;17.70;99.90;;;;;;5070668;28;20020;-83
2023/09/25 11:18:06;;;;;;;4.35;2.67;;;17.50;99.90;;;;;;5072200;28;20024;-85
2023/09/25 11:20:32;;;;;;;4.40;3.05;;;17.50;99.90;;;;;;5070553;28;20066;-84
2023/09/25 11:23:08;;;;;;;3.22;2.90;;;17.60;99.90;;;;;;5072647;28;20411;-83
2023/09/25 11:25:48;;;;;;;5.82;3.63;;;17.60;99.90;;;;;;5071750;28;20127;-84
2023/09/25 11:28:16;;;;;;;6.80;3.40;;;17.70;99.90;;;;;;5071735;28;20124;-86
2023/09/25 11:30:46;;;;;;;6.03;3.40;;;17.80;99.90;;;;;;5068847;28;20377;-85
2023/09/25 11:33:15;;;;;;;5.43;2.75;;;17.80;99.90;;;;;;5051557;28;20045;-84
2023/09/25 11:35:40;;;;;;;8.15;3.65;;;17.90;99.90;;;;;;5063898;28;20020;-83
2023/09/25 11:38:15;;;;;;;7.90;3.80;;;17.90;99.90;;;;;;5071266;28;20073;-85
2023/09/25 11:40:41;;;;;;;4.18;3.03;;;17.90;99.90;;;;;;5071725;28;20103;-85
2023/09/25 11:43:14;;;;;;;4.07;3.05;;;18.10;99.90;;;;;;5069794;28;20040;-85
2023/09/25 11:45:40;;;;;;;8.73;3.13;;;18.00;99.90;;;;;;5070341;28;20020;-84
2023/09/25 11:48:11;;;;;;;7.72;3.50;;;18.00;99.90;;;;;;5071286;28;20024;-85
2023/09/25 11:50:39;;;;;;;6.25;3.65;;;18.10;99.90;;;;;;5062748;28;20062;-84
2023/09/25 11:53:06;;;;;;;4.97;3.40;;;18.10;99.90;;;;;;5070296;28;20051;-83
2023/09/25 11:55:32;;;;;;;4.10;3.33;;;18.20;99.90;;;;;;5069498;28;20021;-83
2023/09/25 11:57:58;;;;;;;6.45;2.72;;;18.30;99.90;;;;;;5072434;28;20021;-84
2023/09/25 12:00:27;;;;;;;6.35;3.55;;;18.30;99.90;;;;;;5072170;28;20017;-84
2023/09/25 12:02:54;;;;;;;5.28;3.20;;;18.40;99.90;;;;;;5067762;28;20388;-84
2023/09/25 12:05:20;;;;;;;6.35;3.45;;;18.40;99.90;;;;;;5069308;28;20029;-85
2023/09/25 12:07:47;;;;;;;4.25;3.30;;;18.30;99.90;;;;;;5070778;28;20040;-84
2023/09/25 12:10:17;;;;;;;5.38;4.15;;;18.40;99.90;;;;;;5068789;28;20092;-84
2023/09/25 12:12:45;;;;;;;5.10;3.08;;;18.50;99.90;;;;;;5071613;28;20025;-84
2023/09/25 12:15:15;;;;;;;5.25;3.42;;;18.50;99.90;;;;;;5068658;28;20036;-85
2023/09/25 12:17:41;;;;;;;4.25;3.25;;;18.50;99.90;;;;;;5071915;28;20035;-83
2023/09/25 12:20:15;;;;;;;4.72;2.92;;;18.50;99.90;;;;;;5071588;28;20070;-90
2023/09/25 12:22:43;;;;;;;8.55;3.38;;;18.50;99.90;;;;;;5070262;28;20032;-85
2023/09/25 12:25:13;;;;;;;6.35;3.75;;;19.50;99.90;;;;;;5067503;28;20460;-84
2023/09/25 12:27:41;;;;;;;4.95;3.40;;;18.50;99.90;;;;;;5071276;28;20029;-85
2023/09/25 12:30:10;;;;;;;4.93;3.05;;;18.60;99.90;;;;;;5071325;28;20091;-85
2023/09/25 12:32:37;;;;;;;5.25;3.20;;;18.60;99.90;;;;;;5071038;28;20131;-85
2023/09/25 12:35:11;;;;;;;6.30;3.08;;;18.80;99.90;;;;;;5071336;28;20085;-83
2023/09/25 12:37:36;;;;;;;5.53;3.35;;;18.60;99.90;;;;;;5064109;28;20499;-85
2023/09/25 12:40:03;;;;;;;5.95;3.65;;;18.70;99.90;;;;;;5071462;28;20055;-84
2023/09/25 12:42:29;;;;;;;4.75;3.03;;;18.60;99.90;;;;;;5071610;28;20415;-86
2023/09/25 12:44:55;;;;;;;4.53;3.42;;;18.60;99.90;;;;;;5070222;28;20068;-84
2023/09/25 12:47:21;;;;;;;4.40;4.00;;;19.70;99.90;;;;;;5071555;28;20456;-84
2023/09/25 12:49:48;;;;;;;5.68;3.28;;;18.60;99.90;;;;;;5072077;28;20025;-84